sensor_id;sensor_type;location;lat;lon;timestamp;P1;durP1;ratioP1;P2;durP2;ratioP2
23594;SDS011;11975;47.674;9.472;2023-08-12T00:02:10;1999.90;;;999.90;;
23594;SDS011;11975;47.674;9.472;2023-08-12T00:04:36;1999.90;;;999.90;;
23594;SDS011;11975;47.674;9.472;2023-08-12T00:07:02;1999.90;;;999.90;;
23594;SDS011;11975;47.674;9.472;2023-08-12T00:09:28;1999.90;;;999.90;;
23594;SDS011;11975;47.674;9.472;2023-08-12T00:11:53;1999.90;;;999.90;;
23594;SDS011;11975;47.674;9.472;2023-08-12T00:14:19;1999.90;;;999.90;;
23594;SDS011;11975;47.674;9.472;2023-08-12T00:16:45;1999.90;;;999.90;;
23594;SDS011;11975;47.674;9.472;2023-08-12T00:19:11;1999.90;;;999.90;;
23594;SDS011;11975;47.674;9.472;2023-08-12T00:21:37;1999.90;;;999.90;;
23594;SDS011;11975;47.674;9.472;2023-08-12T00:24:03;1999.90;;;999.90;;
23594;SDS011;11975;47.674;9.472;2023-08-12T00:26:30;1999.90;;;999.90;;
23594;SDS011;11975;47.674;9.472;2023-08-12T00:28:55;1999.90;;;999.90;;
23594;SDS011;11975;47.674;9.472;2023-08-12T00:31:21;1999.90;;;999.90;;
23594;SDS011;11975;47.674;9.472;2023-08-12T00:33:47;1999.90;;;999.90;;
23594;SDS011;11975;47.674;9.472;2023-08-12T00:36:13;1999.90;;;999.90;;
23594;SDS011;11975;47.674;9.472;2023-08-12T00:38:39;1999.90;;;999.90;;
23594;SDS011;11975;47.674;9.472;2023-08-12T00:41:05;1999.90;;;999.90;;
23594;SDS011;11975;47.674;9.472;2023-08-12T00:43:31;1999.90;;;999.90;;
23594;SDS011;11975;47.674;9.472;2023-08-12T00:45:57;1999.90;;;999.90;;
23594;SDS011;11975;47.674;9.472;2023-08-12T00:48:23;1999.90;;;999.90;;
23594;SDS011;11975;47.674;9.472;2023-08-12T00:50:49;1999.90;;;999.90;;
23594;SDS011;11975;47.674;9.472;2023-08-12T00:53:15;1999.90;;;999.90;;
23594;SDS011;11975;47.674;9.472;2023-08-12T00:55:41;1999.90;;;999.90;;
23594;SDS011;11975;47.674;9.472;2023-08-12T00:58:07;1999.90;;;999.90;;
23594;SDS011;11975;47.674;9.472;2023-08-12T01:00:34;1999.90;;;999.90;;
23594;SDS011;11975;47.674;9.472;2023-08-12T01:03:00;1999.90;;;999.90;;
23594;SDS011;11975;47.674;9.472;2023-08-12T01:05:26;1999.90;;;999.90;;
23594;SDS011;11975;47.674;9.472;2023-08-12T01:07:52;1999.90;;;999.90;;
23594;SDS011;11975;47.674;9.472;2023-08-12T01:10:19;1999.90;;;999.90;;
23594;SDS011;11975;47.674;9.472;2023-08-12T01:12:54;1999.90;;;999.90;;
23594;SDS011;11975;47.674;9.472;2023-08-12T01:15:25;1999.90;;;999.90;;
23594;SDS011;11975;47.674;9.472;2023-08-12T01:17:52;1999.90;;;999.90;;
23594;SDS011;11975;47.674;9.472;2023-08-12T01:20:20;1999.90;;;999.90;;
23594;SDS011;11975;47.674;9.472;2023-08-12T01:23:06;1999.90;;;999.90;;
23594;SDS011;11975;47.674;9.472;2023-08-12T01:28:05;1999.90;;;999.90;;
23594;SDS011;11975;47.674;9.472;2023-08-12T01:30:32;1999.90;;;999.90;;
23594;SDS011;11975;47.674;9.472;2023-08-12T01:35:55;1999.90;;;999.90;;
23594;SDS011;11975;47.674;9.472;2023-08-12T01:38:30;1999.90;;;999.90;;
23594;SDS011;11975;47.674;9.472;2023-08-12T01:40:56;1999.90;;;999.90;;
23594;SDS011;11975;47.674;9.472;2023-08-12T01:43:23;1999.90;;;999.90;;
23594;SDS011;11975;47.674;9.472;2023-08-12T01:45:50;1999.90;;;999.90;;
23594;SDS011;11975;47.674;9.472;2023-08-12T01:48:16;1999.90;;;999.90;;
23594;SDS011;11975;47.674;9.472;2023-08-12T01:50:42;1999.90;;;999.90;;
23594;SDS011;11975;47.674;9.472;2023-08-12T01:53:12;1999.90;;;999.90;;
23594;SDS011;11975;47.674;9.472;2023-08-12T01:55:38;1999.90;;;999.90;;
23594;SDS011;11975;47.674;9.472;2023-08-12T01:58:04;1999.90;;;999.90;;
23594;SDS011;11975;47.674;9.472;2023-08-12T02:00:30;1999.90;;;999.90;;
23594;SDS011;11975;47.674;9.472;2023-08-12T02:02:56;1999.90;;;999.90;;
23594;SDS011;11975;47.674;9.472;2023-08-12T02:05:23;1999.90;;;999.90;;
23594;SDS011;11975;47.674;9.472;2023-08-12T02:07:49;1999.90;;;999.90;;
23594;SDS011;11975;47.674;9.472;2023-08-12T02:10:15;1999.90;;;999.90;;
23594;SDS011;11975;47.674;9.472;2023-08-12T02:12:41;1999.90;;;999.90;;
23594;SDS011;11975;47.674;9.472;2023-08-12T02:15:07;1999.90;;;999.90;;
23594;SDS011;11975;47.674;9.472;2023-08-12T02:17:33;1999.90;;;999.90;;
23594;SDS011;11975;47.674;9.472;2023-08-12T02:19:59;1999.90;;;999.90;;
23594;SDS011;11975;47.674;9.472;2023-08-12T02:22:25;1999.90;;;999.90;;
23594;SDS011;11975;47.674;9.472;2023-08-12T02:24:51;1999.90;;;999.90;;
23594;SDS011;11975;47.674;9.472;2023-08-12T02:27:16;1999.90;;;999.90;;
23594;SDS011;11975;47.674;9.472;2023-08-12T02:29:42;1999.90;;;999.90;;
23594;SDS011;11975;47.674;9.472;2023-08-12T02:32:08;1999.90;;;999.90;;
23594;SDS011;11975;47.674;9.472;2023-08-12T02:34:34;1999.90;;;999.90;;
23594;SDS011;11975;47.674;9.472;2023-08-12T02:37:00;1999.90;;;999.90;;
23594;SDS011;11975;47.674;9.472;2023-08-12T02:39:26;1999.90;;;999.90;;
23594;SDS011;11975;47.674;9.472;2023-08-12T02:41:52;1999.90;;;999.90;;
23594;SDS011;11975;47.674;9.472;2023-08-12T02:44:18;1999.90;;;999.90;;
23594;SDS011;11975;47.674;9.472;2023-08-12T02:46:44;1999.90;;;999.90;;
23594;SDS011;11975;47.674;9.472;2023-08-12T02:49:10;1999.90;;;999.90;;
23594;SDS011;11975;47.674;9.472;2023-08-12T02:51:36;1999.90;;;999.90;;
23594;SDS011;11975;47.674;9.472;2023-08-12T02:54:02;1999.90;;;999.90;;
23594;SDS011;11975;47.674;9.472;2023-08-12T02:56:28;1999.90;;;999.90;;
23594;SDS011;11975;47.674;9.472;2023-08-12T02:58:54;1999.90;;;999.90;;
23594;SDS011;11975;47.674;9.472;2023-08-12T03:01:20;1999.90;;;999.90;;
23594;SDS011;11975;47.674;9.472;2023-08-12T03:03:46;1999.90;;;999.90;;
23594;SDS011;11975;47.674;9.472;2023-08-12T03:06:12;1999.90;;;999.90;;
23594;SDS011;11975;47.674;9.472;2023-08-12T03:08:38;1999.90;;;999.90;;
23594;SDS011;11975;47.674;9.472;2023-08-12T03:11:04;1999.90;;;999.90;;
23594;SDS011;11975;47.674;9.472;2023-08-12T03:13:30;1999.90;;;999.90;;
23594;SDS011;11975;47.674;9.472;2023-08-12T03:15:56;1999.90;;;999.90;;
23594;SDS011;11975;47.674;9.472;2023-08-12T03:18:22;1999.90;;;999.90;;
23594;SDS011;11975;47.674;9.472;2023-08-12T03:20:48;1999.90;;;999.90;;
23594;SDS011;11975;47.674;9.472;2023-08-12T03:23:14;1999.90;;;999.90;;
23594;SDS011;11975;47.674;9.472;2023-08-12T03:25:40;1999.90;;;999.90;;
23594;SDS011;11975;47.674;9.472;2023-08-12T03:28:06;1999.90;;;999.90;;
23594;SDS011;11975;47.674;9.472;2023-08-12T03:30:32;1999.90;;;999.90;;
23594;SDS011;11975;47.674;9.472;2023-08-12T03:32:58;1999.90;;;999.90;;
23594;SDS011;11975;47.674;9.472;2023-08-12T03:35:24;1999.90;;;999.90;;
23594;SDS011;11975;47.674;9.472;2023-08-12T03:37:50;1999.90;;;999.90;;
23594;SDS011;11975;47.674;9.472;2023-08-12T03:40:18;1999.90;;;999.90;;
23594;SDS011;11975;47.674;9.472;2023-08-12T03:42:43;1999.90;;;999.90;;
23594;SDS011;11975;47.674;9.472;2023-08-12T03:45:09;1999.90;;;999.90;;
23594;SDS011;11975;47.674;9.472;2023-08-12T03:47:36;1999.90;;;999.90;;
23594;SDS011;11975;47.674;9.472;2023-08-12T03:50:02;1999.90;;;999.90;;
23594;SDS011;11975;47.674;9.472;2023-08-12T03:52:28;1999.90;;;999.90;;
23594;SDS011;11975;47.674;9.472;2023-08-12T03:54:53;1999.90;;;999.90;;
23594;SDS011;11975;47.674;9.472;2023-08-12T03:57:19;1999.90;;;999.90;;
23594;SDS011;11975;47.674;9.472;2023-08-12T03:59:45;1999.90;;;999.90;;
23594;SDS011;11975;47.674;9.472;2023-08-12T04:02:11;1999.90;;;999.90;;
23594;SDS011;11975;47.674;9.472;2023-08-12T04:04:37;1999.90;;;999.90;;
23594;SDS011;11975;47.674;9.472;2023-08-12T04:07:03;1999.90;;;999.90;;
23594;SDS011;11975;47.674;9.472;2023-08-12T04:09:29;1999.90;;;999.90;;
23594;SDS011;11975;47.674;9.472;2023-08-12T04:11:55;1999.90;;;999.90;;
23594;SDS011;11975;47.674;9.472;2023-08-12T04:14:21;1999.90;;;999.90;;
23594;SDS011;11975;47.674;9.472;2023-08-12T04:16:47;1999.90;;;999.90;;
23594;SDS011;11975;47.674;9.472;2023-08-12T04:19:13;1999.90;;;999.90;;
23594;SDS011;11975;47.674;9.472;2023-08-12T04:21:39;1999.90;;;999.90;;
23594;SDS011;11975;47.674;9.472;2023-08-12T04:24:05;1999.90;;;999.90;;
23594;SDS011;11975;47.674;9.472;2023-08-12T04:26:32;1999.90;;;999.90;;
23594;SDS011;11975;47.674;9.472;2023-08-12T04:28:58;1999.90;;;999.90;;
23594;SDS011;11975;47.674;9.472;2023-08-12T04:31:23;1999.90;;;999.90;;
23594;SDS011;11975;47.674;9.472;2023-08-12T04:33:49;1999.90;;;999.90;;
23594;SDS011;11975;47.674;9.472;2023-08-12T04:36:18;1999.90;;;999.90;;
23594;SDS011;11975;47.674;9.472;2023-08-12T04:38:44;1999.90;;;999.90;;
23594;SDS011;11975;47.674;9.472;2023-08-12T04:41:10;1999.90;;;999.90;;
23594;SDS011;11975;47.674;9.472;2023-08-12T04:43:36;1999.90;;;999.90;;
23594;SDS011;11975;47.674;9.472;2023-08-12T04:46:02;1999.90;;;999.90;;
23594;SDS011;11975;47.674;9.472;2023-08-12T04:48:28;1999.90;;;999.90;;
23594;SDS011;11975;47.674;9.472;2023-08-12T04:50:53;1999.90;;;999.90;;
23594;SDS011;11975;47.674;9.472;2023-08-12T04:53:25;1999.90;;;999.90;;
23594;SDS011;11975;47.674;9.472;2023-08-12T04:55:51;1999.90;;;999.90;;
23594;SDS011;11975;47.674;9.472;2023-08-12T04:58:17;1999.90;;;999.90;;
23594;SDS011;11975;47.674;9.472;2023-08-12T05:00:43;1999.90;;;999.90;;
23594;SDS011;11975;47.674;9.472;2023-08-12T05:03:09;1999.90;;;999.90;;
23594;SDS011;11975;47.674;9.472;2023-08-12T05:05:35;1999.90;;;999.90;;
23594;SDS011;11975;47.674;9.472;2023-08-12T05:08:01;1999.90;;;999.90;;
23594;SDS011;11975;47.674;9.472;2023-08-12T05:10:27;1999.90;;;999.90;;
23594;SDS011;11975;47.674;9.472;2023-08-12T05:12:53;1999.90;;;999.90;;
23594;SDS011;11975;47.674;9.472;2023-08-12T05:15:20;1999.90;;;999.90;;
23594;SDS011;11975;47.674;9.472;2023-08-12T05:17:46;1999.90;;;999.90;;
23594;SDS011;11975;47.674;9.472;2023-08-12T05:20:12;1999.90;;;999.90;;
23594;SDS011;11975;47.674;9.472;2023-08-12T05:22:38;1999.90;;;999.90;;
23594;SDS011;11975;47.674;9.472;2023-08-12T05:25:04;1999.90;;;999.90;;
23594;SDS011;11975;47.674;9.472;2023-08-12T05:27:30;1999.90;;;999.90;;
23594;SDS011;11975;47.674;9.472;2023-08-12T05:29:56;1999.90;;;999.90;;
23594;SDS011;11975;47.674;9.472;2023-08-12T05:32:22;1999.90;;;999.90;;
23594;SDS011;11975;47.674;9.472;2023-08-12T05:34:52;1999.90;;;999.90;;
23594;SDS011;11975;47.674;9.472;2023-08-12T05:37:18;1999.90;;;999.90;;
23594;SDS011;11975;47.674;9.472;2023-08-12T05:39:44;1999.90;;;999.90;;
23594;SDS011;11975;47.674;9.472;2023-08-12T05:42:10;1999.90;;;999.90;;
23594;SDS011;11975;47.674;9.472;2023-08-12T05:44:36;1999.90;;;999.90;;
23594;SDS011;11975;47.674;9.472;2023-08-12T05:47:02;1999.90;;;999.90;;
23594;SDS011;11975;47.674;9.472;2023-08-12T05:49:28;1999.90;;;999.90;;
23594;SDS011;11975;47.674;9.472;2023-08-12T05:51:53;1999.90;;;999.90;;
23594;SDS011;11975;47.674;9.472;2023-08-12T05:54:19;1999.90;;;999.90;;
23594;SDS011;11975;47.674;9.472;2023-08-12T05:56:45;1999.90;;;999.90;;
23594;SDS011;11975;47.674;9.472;2023-08-12T05:59:11;1999.90;;;999.90;;
23594;SDS011;11975;47.674;9.472;2023-08-12T06:01:37;1999.90;;;999.90;;
23594;SDS011;11975;47.674;9.472;2023-08-12T06:04:03;1999.90;;;999.90;;
23594;SDS011;11975;47.674;9.472;2023-08-12T06:06:29;1999.90;;;999.90;;
23594;SDS011;11975;47.674;9.472;2023-08-12T06:08:55;1999.90;;;999.90;;
23594;SDS011;11975;47.674;9.472;2023-08-12T06:11:21;1999.90;;;999.90;;
23594;SDS011;11975;47.674;9.472;2023-08-12T06:13:47;1999.90;;;999.90;;
23594;SDS011;11975;47.674;9.472;2023-08-12T06:16:13;1999.90;;;999.90;;
23594;SDS011;11975;47.674;9.472;2023-08-12T06:18:39;1999.90;;;999.90;;
23594;SDS011;11975;47.674;9.472;2023-08-12T06:21:05;1999.90;;;999.90;;
23594;SDS011;11975;47.674;9.472;2023-08-12T06:23:31;1999.90;;;999.90;;
23594;SDS011;11975;47.674;9.472;2023-08-12T06:25:57;1999.90;;;999.90;;
23594;SDS011;11975;47.674;9.472;2023-08-12T06:28:23;1999.90;;;999.90;;
23594;SDS011;11975;47.674;9.472;2023-08-12T06:30:49;1999.90;;;999.90;;
23594;SDS011;11975;47.674;9.472;2023-08-12T06:33:15;1999.90;;;999.90;;
23594;SDS011;11975;47.674;9.472;2023-08-12T06:35:41;1999.90;;;999.90;;
23594;SDS011;11975;47.674;9.472;2023-08-12T06:38:07;1999.90;;;999.90;;
23594;SDS011;11975;47.674;9.472;2023-08-12T06:40:35;1999.90;;;999.90;;
23594;SDS011;11975;47.674;9.472;2023-08-12T06:43:02;1999.90;;;999.90;;
23594;SDS011;11975;47.674;9.472;2023-08-12T06:45:28;1999.90;;;999.90;;
23594;SDS011;11975;47.674;9.472;2023-08-12T06:47:54;1999.90;;;999.90;;
23594;SDS011;11975;47.674;9.472;2023-08-12T06:50:20;1999.90;;;999.90;;
23594;SDS011;11975;47.674;9.472;2023-08-12T06:52:46;1999.90;;;999.90;;
23594;SDS011;11975;47.674;9.472;2023-08-12T06:55:12;1999.90;;;999.90;;
23594;SDS011;11975;47.674;9.472;2023-08-12T06:57:38;1999.90;;;999.90;;
23594;SDS011;11975;47.674;9.472;2023-08-12T07:00:04;1999.90;;;999.90;;
23594;SDS011;11975;47.674;9.472;2023-08-12T07:02:31;1999.90;;;999.90;;
23594;SDS011;11975;47.674;9.472;2023-08-12T07:04:57;1999.90;;;999.90;;
23594;SDS011;11975;47.674;9.472;2023-08-12T07:07:22;1999.90;;;999.90;;
23594;SDS011;11975;47.674;9.472;2023-08-12T07:09:48;1999.90;;;999.90;;
23594;SDS011;11975;47.674;9.472;2023-08-12T07:12:14;1999.90;;;999.90;;
23594;SDS011;11975;47.674;9.472;2023-08-12T07:14:40;1999.90;;;999.90;;
23594;SDS011;11975;47.674;9.472;2023-08-12T07:17:06;1999.90;;;999.90;;
23594;SDS011;11975;47.674;9.472;2023-08-12T07:19:32;1999.90;;;999.90;;
23594;SDS011;11975;47.674;9.472;2023-08-12T07:21:58;1999.90;;;999.90;;
23594;SDS011;11975;47.674;9.472;2023-08-12T07:24:24;1999.90;;;999.90;;
23594;SDS011;11975;47.674;9.472;2023-08-12T07:26:50;1999.90;;;999.90;;
23594;SDS011;11975;47.674;9.472;2023-08-12T07:29:16;1999.90;;;999.90;;
23594;SDS011;11975;47.674;9.472;2023-08-12T07:31:42;1999.90;;;999.90;;
23594;SDS011;11975;47.674;9.472;2023-08-12T07:36:39;1999.90;;;999.90;;
23594;SDS011;11975;47.674;9.472;2023-08-12T07:39:06;1999.90;;;999.90;;
23594;SDS011;11975;47.674;9.472;2023-08-12T07:41:32;1999.90;;;999.90;;
23594;SDS011;11975;47.674;9.472;2023-08-12T07:43:58;1999.90;;;999.90;;
23594;SDS011;11975;47.674;9.472;2023-08-12T07:46:24;1999.90;;;999.90;;
23594;SDS011;11975;47.674;9.472;2023-08-12T07:48:50;1999.90;;;999.90;;
23594;SDS011;11975;47.674;9.472;2023-08-12T07:51:16;1999.90;;;999.90;;
23594;SDS011;11975;47.674;9.472;2023-08-12T07:53:42;1999.90;;;999.90;;
23594;SDS011;11975;47.674;9.472;2023-08-12T07:56:08;1999.90;;;999.90;;
23594;SDS011;11975;47.674;9.472;2023-08-12T07:58:34;1999.90;;;999.90;;
23594;SDS011;11975;47.674;9.472;2023-08-12T08:01:00;1999.90;;;999.90;;
23594;SDS011;11975;47.674;9.472;2023-08-12T08:03:26;1999.90;;;999.90;;
23594;SDS011;11975;47.674;9.472;2023-08-12T08:05:52;1999.90;;;999.90;;
23594;SDS011;11975;47.674;9.472;2023-08-12T08:08:18;1999.90;;;999.90;;
23594;SDS011;11975;47.674;9.472;2023-08-12T08:10:45;1999.90;;;999.90;;
23594;SDS011;11975;47.674;9.472;2023-08-12T08:13:11;1999.90;;;999.90;;
23594;SDS011;11975;47.674;9.472;2023-08-12T08:15:37;1999.90;;;999.90;;
23594;SDS011;11975;47.674;9.472;2023-08-12T08:18:03;1999.90;;;999.90;;
23594;SDS011;11975;47.674;9.472;2023-08-12T08:20:30;1999.90;;;999.90;;
23594;SDS011;11975;47.674;9.472;2023-08-12T08:22:56;1999.90;;;999.90;;
23594;SDS011;11975;47.674;9.472;2023-08-12T08:25:22;1999.90;;;999.90;;
23594;SDS011;11975;47.674;9.472;2023-08-12T08:27:48;1999.90;;;999.90;;
23594;SDS011;11975;47.674;9.472;2023-08-12T08:30:14;1999.90;;;999.90;;
23594;SDS011;11975;47.674;9.472;2023-08-12T08:32:40;1999.90;;;999.90;;
23594;SDS011;11975;47.674;9.472;2023-08-12T08:35:06;1999.90;;;999.90;;
23594;SDS011;11975;47.674;9.472;2023-08-12T08:37:32;1999.90;;;999.90;;
23594;SDS011;11975;47.674;9.472;2023-08-12T08:39:58;1999.90;;;999.90;;
23594;SDS011;11975;47.674;9.472;2023-08-12T08:42:24;1999.90;;;999.90;;
23594;SDS011;11975;47.674;9.472;2023-08-12T08:44:53;1999.90;;;999.90;;
23594;SDS011;11975;47.674;9.472;2023-08-12T08:47:19;1999.90;;;999.90;;
23594;SDS011;11975;47.674;9.472;2023-08-12T08:49:50;1999.90;;;999.90;;
23594;SDS011;11975;47.674;9.472;2023-08-12T08:52:16;1999.90;;;999.90;;
23594;SDS011;11975;47.674;9.472;2023-08-12T08:54:43;1999.90;;;999.90;;
23594;SDS011;11975;47.674;9.472;2023-08-12T08:57:09;21.65;;;20.20;;
23594;SDS011;11975;47.674;9.472;2023-08-12T08:59:35;21.17;;;19.92;;
23594;SDS011;11975;47.674;9.472;2023-08-12T09:02:01;22.05;;;20.75;;
23594;SDS011;11975;47.674;9.472;2023-08-12T09:04:27;21.77;;;20.48;;
23594;SDS011;11975;47.674;9.472;2023-08-12T09:06:53;21.27;;;19.92;;
23594;SDS011;11975;47.674;9.472;2023-08-12T09:09:20;20.83;;;19.60;;
23594;SDS011;11975;47.674;9.472;2023-08-12T09:11:47;21.65;;;20.35;;
23594;SDS011;11975;47.674;9.472;2023-08-12T09:14:13;21.90;;;20.50;;
23594;SDS011;11975;47.674;9.472;2023-08-12T09:16:39;1999.90;;;999.90;;
23594;SDS011;11975;47.674;9.472;2023-08-12T09:19:05;1999.90;;;999.90;;
23594;SDS011;11975;47.674;9.472;2023-08-12T09:21:31;1999.90;;;999.90;;
23594;SDS011;11975;47.674;9.472;2023-08-12T09:23:57;1999.90;;;999.90;;
23594;SDS011;11975;47.674;9.472;2023-08-12T09:26:28;1999.90;;;999.90;;
23594;SDS011;11975;47.674;9.472;2023-08-12T09:28:54;1999.90;;;999.90;;
23594;SDS011;11975;47.674;9.472;2023-08-12T09:31:27;1999.90;;;999.90;;
23594;SDS011;11975;47.674;9.472;2023-08-12T09:33:58;1999.90;;;999.90;;
23594;SDS011;11975;47.674;9.472;2023-08-12T09:36:34;1999.90;;;999.90;;
23594;SDS011;11975;47.674;9.472;2023-08-12T09:39:00;1999.90;;;999.90;;
23594;SDS011;11975;47.674;9.472;2023-08-12T09:41:26;1999.90;;;999.90;;
23594;SDS011;11975;47.674;9.472;2023-08-12T09:43:52;1999.90;;;999.90;;
23594;SDS011;11975;47.674;9.472;2023-08-12T09:46:20;1999.90;;;999.90;;
23594;SDS011;11975;47.674;9.472;2023-08-12T09:48:47;1999.90;;;999.90;;
23594;SDS011;11975;47.674;9.472;2023-08-12T09:51:15;1999.90;;;999.90;;
23594;SDS011;11975;47.674;9.472;2023-08-12T09:53:41;1999.90;;;999.90;;
23594;SDS011;11975;47.674;9.472;2023-08-12T09:56:08;1999.90;;;999.90;;
23594;SDS011;11975;47.674;9.472;2023-08-12T09:58:37;1999.90;;;999.90;;
23594;SDS011;11975;47.674;9.472;2023-08-12T10:01:03;1999.90;;;999.90;;
23594;SDS011;11975;47.674;9.472;2023-08-12T10:03:31;1999.90;;;999.90;;
23594;SDS011;11975;47.674;9.472;2023-08-12T10:05:58;1999.90;;;999.90;;
23594;SDS011;11975;47.674;9.472;2023-08-12T10:08:26;1999.90;;;999.90;;
23594;SDS011;11975;47.674;9.472;2023-08-12T10:10:53;1999.90;;;999.90;;
23594;SDS011;11975;47.674;9.472;2023-08-12T10:13:19;1999.90;;;999.90;;
23594;SDS011;11975;47.674;9.472;2023-08-12T10:15:46;1999.90;;;999.90;;
23594;SDS011;11975;47.674;9.472;2023-08-12T10:18:13;1999.90;;;999.90;;
23594;SDS011;11975;47.674;9.472;2023-08-12T10:20:39;1999.90;;;999.90;;
23594;SDS011;11975;47.674;9.472;2023-08-12T10:23:05;1999.90;;;999.90;;
23594;SDS011;11975;47.674;9.472;2023-08-12T10:25:32;1999.90;;;999.90;;
23594;SDS011;11975;47.674;9.472;2023-08-12T10:28:00;1999.90;;;999.90;;
23594;SDS011;11975;47.674;9.472;2023-08-12T10:30:29;1999.90;;;999.90;;
23594;SDS011;11975;47.674;9.472;2023-08-12T10:32:57;1999.90;;;999.90;;
23594;SDS011;11975;47.674;9.472;2023-08-12T10:35:24;1999.90;;;999.90;;
23594;SDS011;11975;47.674;9.472;2023-08-12T10:38:06;1999.90;;;999.90;;
23594;SDS011;11975;47.674;9.472;2023-08-12T10:40:32;1999.90;;;999.90;;
23594;SDS011;11975;47.674;9.472;2023-08-12T10:42:58;1999.90;;;999.90;;
23594;SDS011;11975;47.674;9.472;2023-08-12T10:45:24;1999.90;;;999.90;;
23594;SDS011;11975;47.674;9.472;2023-08-12T10:50:49;20.92;;;19.73;;
23594;SDS011;11975;47.674;9.472;2023-08-12T10:53:22;20.67;;;19.48;;
23594;SDS011;11975;47.674;9.472;2023-08-12T10:56:03;20.58;;;19.38;;
23594;SDS011;11975;47.674;9.472;2023-08-12T10:58:40;21.42;;;20.13;;
23594;SDS011;11975;47.674;9.472;2023-08-12T11:01:17;20.95;;;19.73;;
23594;SDS011;11975;47.674;9.472;2023-08-12T11:03:44;1999.90;;;999.90;;
23594;SDS011;11975;47.674;9.472;2023-08-12T11:06:10;1999.90;;;999.90;;
23594;SDS011;11975;47.674;9.472;2023-08-12T11:08:41;1999.90;;;999.90;;
23594;SDS011;11975;47.674;9.472;2023-08-12T11:11:23;1999.90;;;999.90;;
23594;SDS011;11975;47.674;9.472;2023-08-12T11:13:56;1999.90;;;999.90;;
23594;SDS011;11975;47.674;9.472;2023-08-12T11:19:17;1999.90;;;999.90;;
23594;SDS011;11975;47.674;9.472;2023-08-12T11:21:44;1999.90;;;999.90;;
23594;SDS011;11975;47.674;9.472;2023-08-12T11:24:11;1999.90;;;999.90;;
23594;SDS011;11975;47.674;9.472;2023-08-12T11:26:37;1999.90;;;999.90;;
23594;SDS011;11975;47.674;9.472;2023-08-12T11:29:12;1999.90;;;999.90;;
23594;SDS011;11975;47.674;9.472;2023-08-12T11:31:39;1999.90;;;999.90;;
23594;SDS011;11975;47.674;9.472;2023-08-12T11:34:05;1999.90;;;999.90;;
23594;SDS011;11975;47.674;9.472;2023-08-12T11:36:31;1999.90;;;999.90;;
23594;SDS011;11975;47.674;9.472;2023-08-12T11:38:57;1999.90;;;999.90;;
23594;SDS011;11975;47.674;9.472;2023-08-12T11:41:23;1999.90;;;999.90;;
23594;SDS011;11975;47.674;9.472;2023-08-12T11:43:49;1999.90;;;999.90;;
23594;SDS011;11975;47.674;9.472;2023-08-12T11:46:15;1999.90;;;999.90;;
23594;SDS011;11975;47.674;9.472;2023-08-12T11:48:43;1999.90;;;999.90;;
23594;SDS011;11975;47.674;9.472;2023-08-12T11:51:09;1999.90;;;999.90;;
23594;SDS011;11975;47.674;9.472;2023-08-12T11:53:35;1999.90;;;999.90;;
23594;SDS011;11975;47.674;9.472;2023-08-12T11:56:01;1999.90;;;999.90;;
23594;SDS011;11975;47.674;9.472;2023-08-12T11:58:34;1999.90;;;999.90;;
23594;SDS011;11975;47.674;9.472;2023-08-12T12:01:01;1999.90;;;999.90;;
23594;SDS011;11975;47.674;9.472;2023-08-12T12:03:28;1999.90;;;999.90;;
23594;SDS011;11975;47.674;9.472;2023-08-12T12:05:56;1999.90;;;999.90;;
23594;SDS011;11975;47.674;9.472;2023-08-12T12:08:22;1999.90;;;999.90;;
23594;SDS011;11975;47.674;9.472;2023-08-12T12:10:48;1999.90;;;999.90;;
23594;SDS011;11975;47.674;9.472;2023-08-12T12:13:14;1999.90;;;999.90;;
23594;SDS011;11975;47.674;9.472;2023-08-12T12:15:43;1999.90;;;999.90;;
23594;SDS011;11975;47.674;9.472;2023-08-12T12:18:10;1999.90;;;999.90;;
23594;SDS011;11975;47.674;9.472;2023-08-12T12:20:41;1999.90;;;999.90;;
23594;SDS011;11975;47.674;9.472;2023-08-12T12:23:28;1999.90;;;999.90;;
23594;SDS011;11975;47.674;9.472;2023-08-12T12:25:58;1999.90;;;999.90;;
23594;SDS011;11975;47.674;9.472;2023-08-12T12:28:25;1999.90;;;999.90;;
23594;SDS011;11975;47.674;9.472;2023-08-12T12:30:51;1999.90;;;999.90;;
23594;SDS011;11975;47.674;9.472;2023-08-12T12:33:17;1999.90;;;999.90;;
23594;SDS011;11975;47.674;9.472;2023-08-12T12:35:43;1999.90;;;999.90;;
23594;SDS011;11975;47.674;9.472;2023-08-12T12:38:09;1999.90;;;999.90;;
23594;SDS011;11975;47.674;9.472;2023-08-12T12:40:35;1999.90;;;999.90;;
23594;SDS011;11975;47.674;9.472;2023-08-12T12:43:01;1999.90;;;999.90;;
23594;SDS011;11975;47.674;9.472;2023-08-12T12:45:28;1999.90;;;999.90;;
23594;SDS011;11975;47.674;9.472;2023-08-12T12:47:54;1999.90;;;999.90;;
23594;SDS011;11975;47.674;9.472;2023-08-12T12:50:20;1999.90;;;999.90;;
23594;SDS011;11975;47.674;9.472;2023-08-12T12:52:46;1999.90;;;999.90;;
23594;SDS011;11975;47.674;9.472;2023-08-12T12:55:12;1999.90;;;999.90;;
23594;SDS011;11975;47.674;9.472;2023-08-12T12:57:38;1999.90;;;999.90;;
23594;SDS011;11975;47.674;9.472;2023-08-12T13:00:05;1999.90;;;999.90;;
23594;SDS011;11975;47.674;9.472;2023-08-12T13:02:31;1999.90;;;999.90;;
23594;SDS011;11975;47.674;9.472;2023-08-12T13:04:57;1999.90;;;999.90;;
23594;SDS011;11975;47.674;9.472;2023-08-12T13:07:23;1999.90;;;999.90;;
23594;SDS011;11975;47.674;9.472;2023-08-12T13:09:49;1999.90;;;999.90;;
23594;SDS011;11975;47.674;9.472;2023-08-12T13:12:15;1999.90;;;999.90;;
23594;SDS011;11975;47.674;9.472;2023-08-12T13:14:41;1999.90;;;999.90;;
23594;SDS011;11975;47.674;9.472;2023-08-12T13:17:07;1999.90;;;999.90;;
23594;SDS011;11975;47.674;9.472;2023-08-12T13:19:33;1999.90;;;999.90;;
23594;SDS011;11975;47.674;9.472;2023-08-12T13:21:59;1999.90;;;999.90;;
23594;SDS011;11975;47.674;9.472;2023-08-12T13:24:25;1999.90;;;999.90;;
23594;SDS011;11975;47.674;9.472;2023-08-12T13:26:51;1999.90;;;999.90;;
23594;SDS011;11975;47.674;9.472;2023-08-12T13:29:20;1999.90;;;999.90;;
23594;SDS011;11975;47.674;9.472;2023-08-12T13:31:46;1999.90;;;999.90;;
23594;SDS011;11975;47.674;9.472;2023-08-12T13:34:11;1999.90;;;999.90;;
23594;SDS011;11975;47.674;9.472;2023-08-12T13:36:38;1999.90;;;999.90;;
23594;SDS011;11975;47.674;9.472;2023-08-12T13:39:04;1999.90;;;999.90;;
23594;SDS011;11975;47.674;9.472;2023-08-12T13:41:30;1999.90;;;999.90;;
23594;SDS011;11975;47.674;9.472;2023-08-12T13:43:56;1999.90;;;999.90;;
23594;SDS011;11975;47.674;9.472;2023-08-12T13:46:21;1999.90;;;999.90;;
23594;SDS011;11975;47.674;9.472;2023-08-12T13:48:47;1999.90;;;999.90;;
23594;SDS011;11975;47.674;9.472;2023-08-12T13:51:13;1999.90;;;999.90;;
23594;SDS011;11975;47.674;9.472;2023-08-12T13:53:39;1999.90;;;999.90;;
23594;SDS011;11975;47.674;9.472;2023-08-12T13:56:05;1999.90;;;999.90;;
23594;SDS011;11975;47.674;9.472;2023-08-12T13:58:31;1999.90;;;999.90;;